createdAt,value
2019-04-20T00:02:29.614Z,15.18
2019-04-20T00:05:13.104Z,15.15
2019-04-20T00:08:09.031Z,15.06
2019-04-20T00:11:17.488Z,15.10
2019-04-20T00:14:07.173Z,14.98
2019-04-20T00:17:05.190Z,15.01
2019-04-20T00:19:57.806Z,14.92
2019-04-20T00:23:26.887Z,15.03
2019-04-20T00:26:59.823Z,14.89
2019-04-20T00:29:52.377Z,14.89
2019-04-20T00:32:41.334Z,14.79
2019-04-20T00:35:32.103Z,14.74
2019-04-20T00:38:25.989Z,14.78
2019-04-20T00:41:27.677Z,14.73
2019-04-20T00:44:23.285Z,14.66
2019-04-20T00:47:34.855Z,14.56
2019-04-20T00:50:29.791Z,14.54
2019-04-20T00:53:26.250Z,14.41
2019-04-20T00:56:11.914Z,14.38
2019-04-20T00:59:30.228Z,14.40
2019-04-20T01:02:20.872Z,14.32
2019-04-20T01:11:54.384Z,14.14
2019-04-20T01:14:51.674Z,14.15
2019-04-20T01:17:49.352Z,14.17
2019-04-20T01:20:41.017Z,14.04
2019-04-20T01:23:50.755Z,13.95
2019-04-20T01:26:45.968Z,14.02
2019-04-20T01:29:48.800Z,13.92
2019-04-20T01:32:51.708Z,13.81
2019-04-20T01:35:53.471Z,13.85
2019-04-20T01:38:43.530Z,13.79
2019-04-20T01:41:35.123Z,13.70
2019-04-20T01:44:31.786Z,13.62
2019-04-20T01:47:36.710Z,13.64
2019-04-20T01:50:26.065Z,13.51
2019-04-20T01:53:46.981Z,13.48
2019-04-20T01:59:52.014Z,13.38
2019-04-20T02:03:13.075Z,13.37
2019-04-20T02:06:20.062Z,13.28
2019-04-20T02:12:10.506Z,13.22
2019-04-20T02:14:55.237Z,13.12
2019-04-20T02:17:51.917Z,13.08
2019-04-20T02:21:07.276Z,13.04
2019-04-20T02:23:47.497Z,13.01
2019-04-20T02:26:43.005Z,12.94
2019-04-20T02:30:04.342Z,12.89
2019-04-20T02:36:38.211Z,12.90
2019-04-20T02:43:09.429Z,12.88
2019-04-20T02:49:00.664Z,12.87
2019-04-20T02:51:54.034Z,12.82
2019-04-20T02:54:53.544Z,12.80
2019-04-20T03:00:38.576Z,12.63
2019-04-20T03:03:22.579Z,12.73
2019-04-20T03:06:26.353Z,12.67
2019-04-20T03:09:32.571Z,12.59
2019-04-20T03:12:52.215Z,12.51
2019-04-20T03:15:18.549Z,12.52
2019-04-20T03:18:12.090Z,12.48
2019-04-20T03:21:21.272Z,12.46
2019-04-20T03:31:30.763Z,12.46
2019-04-20T03:34:40.055Z,12.48
2019-04-20T03:37:06.826Z,12.45
2019-04-20T03:40:04.337Z,12.40
2019-04-20T03:42:40.515Z,12.31
2019-04-20T03:45:25.426Z,12.25
2019-04-20T03:48:34.210Z,12.30
2019-04-20T03:51:41.194Z,12.23
2019-04-20T03:54:41.608Z,12.15
2019-04-20T04:02:09.273Z,12.09
2019-04-20T04:05:04.596Z,12.09
2019-04-20T04:07:41.551Z,12.12
2019-04-20T04:10:35.252Z,12.04
2019-04-20T04:13:29.150Z,12.03
2019-04-20T04:16:16.397Z,11.88
2019-04-20T04:19:12.697Z,11.88
2019-04-20T04:22:21.116Z,11.84
2019-04-20T04:25:14.818Z,11.75
2019-04-20T04:28:22.535Z,11.78
2019-04-20T04:31:22.976Z,11.70
2019-04-20T04:34:27.924Z,11.68
2019-04-20T04:37:17.976Z,11.70
2019-04-20T04:40:27.915Z,11.65
2019-04-20T04:43:10.183Z,11.66
2019-04-20T04:45:57.417Z,11.65
2019-04-20T04:48:51.078Z,11.71
2019-04-20T04:52:01.075Z,11.74
2019-04-20T04:54:53.749Z,11.66
2019-04-20T04:57:49.536Z,11.63
2019-04-20T05:00:40.834Z,11.71
2019-04-20T05:04:10.537Z,11.66
2019-04-20T05:06:43.407Z,11.67
2019-04-20T05:09:22.635Z,11.68
2019-04-20T05:12:28.881Z,11.76
2019-04-20T05:15:22.685Z,11.86
2019-04-20T05:18:28.881Z,11.87
2019-04-20T05:21:55.262Z,11.89
2019-04-20T05:24:58.039Z,11.92
2019-04-20T05:27:50.878Z,11.91
2019-04-20T05:30:03.772Z,11.91
2019-04-20T05:32:44.601Z,11.94
2019-04-20T05:35:35.456Z,12.02
2019-04-20T05:38:06.964Z,12.06
2019-04-20T05:40:32.697Z,12.14
2019-04-20T05:43:17.894Z,12.21
2019-04-20T05:45:45.067Z,12.26
2019-04-20T05:48:18.531Z,12.40
2019-04-20T05:50:57.685Z,12.42
2019-04-20T05:53:32.606Z,12.51
2019-04-20T05:56:00.693Z,12.54
2019-04-20T05:58:34.305Z,12.65
2019-04-20T06:01:12.287Z,12.75
2019-04-20T06:03:38.155Z,12.83
2019-04-20T06:06:15.445Z,12.89
2019-04-20T06:08:53.793Z,12.98
2019-04-20T06:11:23.491Z,13.07
2019-04-20T06:14:05.384Z,13.21
2019-04-20T06:16:56.831Z,13.39
2019-04-20T06:19:39.598Z,13.42
2019-04-20T06:22:10.289Z,13.63
2019-04-20T06:25:06.112Z,13.69
2019-04-20T06:27:38.167Z,13.75
2019-04-20T06:30:01.439Z,13.79
2019-04-20T06:33:45.081Z,13.92
2019-04-20T06:43:46.024Z,14.54
2019-04-20T06:46:22.517Z,14.68
2019-04-20T06:48:56.848Z,14.86
2019-04-20T06:51:30.001Z,15.07
2019-04-20T06:53:57.616Z,15.27
2019-04-20T06:56:41.711Z,15.51
2019-04-20T06:59:21.432Z,15.72
2019-04-20T07:01:56.829Z,16.00
2019-04-20T07:04:43.269Z,16.16
2019-04-20T07:06:56.245Z,16.42
2019-04-20T07:09:39.921Z,16.62
2019-04-20T07:11:58.076Z,16.88
2019-04-20T07:14:31.398Z,16.98
2019-04-20T07:17:31.614Z,17.07
2019-04-20T07:20:04.112Z,17.23
2019-04-20T07:22:46.662Z,17.45
2019-04-20T07:25:23.139Z,17.82
2019-04-20T07:27:53.741Z,18.09
2019-04-20T07:30:24.146Z,18.34
2019-04-20T07:32:57.983Z,18.58
2019-04-20T07:35:30.551Z,18.93
2019-04-20T07:38:23.401Z,19.18
2019-04-20T07:40:38.170Z,19.45
2019-04-20T07:43:08.134Z,19.78
2019-04-20T07:45:36.729Z,20.08
2019-04-20T07:48:29.564Z,20.34
2019-04-20T07:50:46.226Z,20.69
2019-04-20T07:53:20.227Z,20.99
2019-04-20T07:56:16.555Z,21.26
2019-04-20T07:58:29.471Z,21.55
2019-04-20T08:01:21.206Z,21.79
2019-04-20T08:04:06.004Z,22.04
2019-04-20T08:06:28.917Z,22.29
2019-04-20T08:09:07.153Z,22.51
2019-04-20T08:11:50.049Z,22.74
2019-04-20T08:14:27.114Z,22.95
2019-04-20T08:17:09.159Z,23.13
2019-04-20T08:19:23.434Z,23.29
2019-04-20T08:22:02.489Z,23.36
2019-04-20T08:24:27.751Z,23.48
2019-04-20T08:26:53.049Z,23.67
2019-04-20T08:29:37.910Z,23.92
2019-04-20T08:32:24.089Z,24.11
2019-04-20T08:34:59.538Z,24.33
2019-04-20T08:37:29.616Z,24.63
2019-04-20T08:40:09.604Z,24.69
2019-04-20T08:42:47.698Z,24.78
2019-04-20T08:45:12.547Z,25.04
2019-04-20T08:47:51.392Z,25.21
2019-04-20T08:50:22.424Z,25.39
2019-04-20T08:53:09.040Z,25.33
2019-04-20T08:55:23.988Z,25.42
2019-04-20T08:57:37.949Z,25.69
2019-04-20T09:00:11.130Z,25.99
2019-04-20T09:02:52.147Z,26.15
2019-04-20T09:05:32.937Z,26.33
2019-04-20T09:08:00.502Z,26.39
2019-04-20T09:10:45.399Z,26.39
2019-04-20T09:13:08.374Z,26.39
2019-04-20T09:15:29.914Z,26.36
2019-04-20T09:18:13.562Z,26.54
2019-04-20T09:20:48.726Z,26.79
2019-04-20T09:23:33.496Z,26.98
2019-04-20T09:26:10.458Z,27.35
2019-04-20T09:28:35.387Z,27.74
2019-04-20T09:31:28.261Z,27.77
2019-04-20T09:34:05.983Z,28.00
2019-04-20T09:36:46.018Z,27.86
2019-04-20T09:39:24.710Z,28.10
2019-04-20T09:42:07.665Z,28.36
2019-04-20T09:44:42.693Z,28.04
2019-04-20T09:47:12.349Z,28.12
2019-04-20T09:49:55.465Z,28.33
2019-04-20T09:52:32.196Z,28.22
2019-04-20T09:55:03.153Z,28.21
2019-04-20T09:57:37.956Z,28.33
2019-04-20T10:00:14.656Z,28.60
2019-04-20T10:02:32.912Z,28.83
2019-04-20T10:05:02.378Z,28.99
2019-04-20T10:07:36.015Z,28.86
2019-04-20T10:10:22.731Z,28.90
2019-04-20T10:12:43.940Z,29.18
2019-04-20T10:15:19.487Z,29.22
2019-04-20T10:17:49.797Z,29.35
2019-04-20T10:20:28.328Z,29.55
2019-04-20T10:22:54.451Z,30.07
2019-04-20T10:25:26.682Z,30.33
2019-04-20T10:27:58.085Z,30.24
2019-04-20T10:30:30.574Z,30.35
2019-04-20T10:33:01.862Z,30.46
2019-04-20T10:35:33.822Z,30.69
2019-04-20T10:38:09.673Z,30.68
2019-04-20T10:40:50.701Z,30.83
2019-04-20T10:43:14.198Z,30.96
2019-04-20T10:45:46.831Z,31.01
2019-04-20T10:48:19.323Z,31.34
2019-04-20T10:50:50.727Z,31.33
2019-04-20T10:53:22.091Z,31.28
2019-04-20T10:55:53.565Z,31.30
2019-04-20T10:58:25.286Z,31.25
2019-04-20T11:00:57.691Z,31.25
2019-04-20T11:03:29.151Z,31.18
2019-04-20T11:06:00.734Z,31.11
2019-04-20T11:08:32.907Z,31.17
2019-04-20T11:11:12.684Z,31.37
2019-04-20T11:13:37.577Z,31.44
2019-04-20T11:16:09.009Z,31.57
2019-04-20T11:18:40.330Z,31.90
2019-04-20T11:21:11.630Z,32.08
2019-04-20T11:23:42.952Z,32.06
2019-04-20T11:26:14.379Z,32.15
2019-04-20T11:28:46.218Z,32.03
2019-04-20T11:31:17.593Z,32.09
2019-04-20T11:33:49.997Z,31.94
2019-04-20T11:36:21.336Z,32.22
2019-04-20T11:38:53.060Z,32.26
2019-04-20T11:41:29.079Z,32.31
2019-04-20T11:43:59.716Z,32.21
2019-04-20T11:46:32.364Z,32.13
2019-04-20T11:49:03.906Z,32.21
2019-04-20T11:51:35.260Z,32.22
2019-04-20T11:54:06.700Z,32.47
2019-04-20T11:56:40.820Z,32.38
2019-04-20T11:59:12.363Z,32.15
2019-04-20T12:02:07.678Z,32.56
2019-04-20T12:04:49.973Z,32.64
2019-04-20T12:07:17.094Z,32.77
2019-04-20T12:09:49.367Z,32.70
2019-04-20T12:12:31.239Z,32.85
2019-04-20T12:14:54.814Z,33.06
2019-04-20T12:17:26.273Z,32.97
2019-04-20T12:19:57.796Z,32.81
2019-04-20T12:22:30.339Z,32.71
2019-04-20T12:25:02.550Z,33.02
2019-04-20T12:27:34.521Z,33.13
2019-04-20T12:30:08.128Z,33.01
2019-04-20T12:32:43.946Z,32.98
2019-04-20T12:35:14.089Z,33.03
2019-04-20T12:37:47.344Z,33.32
2019-04-20T12:40:19.884Z,33.74
2019-04-20T12:42:52.962Z,33.71
2019-04-20T12:45:25.925Z,33.02
2019-04-20T12:47:57.633Z,32.79
2019-04-20T12:50:29.802Z,32.84
2019-04-20T12:53:02.353Z,33.01
2019-04-20T12:55:34.699Z,33.19
2019-04-20T12:58:06.234Z,33.20
2019-04-20T13:00:49.249Z,33.07
2019-04-20T13:03:21.435Z,32.95
2019-04-20T13:05:54.235Z,33.01
2019-04-20T13:08:33.679Z,33.19
2019-04-20T13:11:08.684Z,33.23
2019-04-20T13:14:10.940Z,32.87
2019-04-20T13:16:42.281Z,32.97
2019-04-20T13:19:14.884Z,31.96
2019-04-20T13:21:47.235Z,31.29
2019-04-20T13:24:18.898Z,31.30
2019-04-20T13:26:51.002Z,31.61
2019-04-20T13:29:22.735Z,31.47
2019-04-20T13:31:56.316Z,31.31
2019-04-20T13:34:28.394Z,31.30
2019-04-20T13:37:00.086Z,31.53
2019-04-20T13:39:31.459Z,31.73
2019-04-20T13:42:10.548Z,31.87
2019-04-20T13:44:36.949Z,31.71
2019-04-20T13:47:09.162Z,31.97
2019-04-20T13:49:40.979Z,32.22
2019-04-20T13:52:12.919Z,32.45
2019-04-20T13:54:45.223Z,32.60
2019-04-20T13:57:19.802Z,32.67
2019-04-20T13:59:55.871Z,32.94
2019-04-20T14:02:44.755Z,33.22
2019-04-20T14:05:22.844Z,33.07
2019-04-20T14:07:55.486Z,32.65
2019-04-20T14:10:27.084Z,32.48
2019-04-20T14:13:06.121Z,31.97
2019-04-20T14:15:31.723Z,32.08
2019-04-20T14:18:03.339Z,32.09
2019-04-20T14:20:36.135Z,32.32
2019-04-20T14:23:07.650Z,32.67
2019-04-20T14:25:38.996Z,32.75
2019-04-20T14:28:11.350Z,32.54
2019-04-20T14:30:43.707Z,32.65
2019-04-20T14:33:15.262Z,32.72
2019-04-20T14:35:47.008Z,32.78
2019-04-20T14:38:20.187Z,32.76
2019-04-20T14:40:52.573Z,32.55
2019-04-20T14:43:24.923Z,32.50
2019-04-20T14:45:56.706Z,32.24
2019-04-20T14:48:28.896Z,32.02
2019-04-20T14:51:01.523Z,31.92
2019-04-20T14:53:33.617Z,32.05
2019-04-20T14:56:05.373Z,31.83
2019-04-20T14:58:59.921Z,31.73
2019-04-20T15:01:44.826Z,31.84
2019-04-20T15:04:18.643Z,31.91
2019-04-20T15:06:50.549Z,31.79
2019-04-20T15:09:21.868Z,31.75
2019-04-20T15:11:53.264Z,31.72
2019-04-20T15:14:24.927Z,31.43
2019-04-20T15:16:56.456Z,31.23
2019-04-20T15:19:45.569Z,31.20
2019-04-20T15:22:35.931Z,30.99
2019-04-20T15:25:08.012Z,30.64
2019-04-20T15:27:42.501Z,30.42
2019-04-20T15:30:14.091Z,30.21
2019-04-20T15:32:45.611Z,30.04
2019-04-20T15:35:19.189Z,29.82
2019-04-20T15:37:51.063Z,29.69
2019-04-20T15:40:23.515Z,29.70
2019-04-20T15:43:05.999Z,29.82
2019-04-20T15:45:29.212Z,29.70
2019-04-20T15:48:01.821Z,29.67
2019-04-20T15:50:33.905Z,29.69
2019-04-20T15:53:05.944Z,29.52
2019-04-20T15:55:39.543Z,29.53
2019-04-20T15:58:10.476Z,29.51
2019-04-20T16:00:42.529Z,29.23
2019-04-20T16:03:21.431Z,29.05
2019-04-20T16:06:18.943Z,28.94
2019-04-20T16:08:54.456Z,28.71
2019-04-20T16:11:26.639Z,28.59
2019-04-20T16:13:59.710Z,28.48
2019-04-20T16:16:31.976Z,28.41
2019-04-20T16:19:10.698Z,28.43
2019-04-20T16:21:37.460Z,28.22
2019-04-20T16:24:18.980Z,27.91
2019-04-20T16:27:13.625Z,27.79
2019-04-20T16:29:45.603Z,27.67
2019-04-20T16:32:18.381Z,27.49
2019-04-20T16:34:50.704Z,27.25
2019-04-20T16:37:22.417Z,27.01
2019-04-20T16:39:54.645Z,26.79
2019-04-20T16:42:26.650Z,26.60
2019-04-20T16:44:59.147Z,26.55
2019-04-20T16:47:30.528Z,26.44
2019-04-20T16:50:01.862Z,26.40
2019-04-20T16:52:33.225Z,26.32
2019-04-20T16:55:06.048Z,26.18
2019-04-20T16:57:37.758Z,26.01
2019-04-20T17:00:09.591Z,25.79
2019-04-20T17:02:40.929Z,25.51
2019-04-20T17:05:13.477Z,25.36
2019-04-20T17:07:46.919Z,25.36
2019-04-20T17:10:20.186Z,25.21
2019-04-20T17:12:51.876Z,25.09
2019-04-20T17:15:23.590Z,25.01
2019-04-20T17:17:57.046Z,24.87
2019-04-20T17:20:28.916Z,24.79
2019-04-20T17:23:02.114Z,24.71
2019-04-20T17:25:34.406Z,24.63
2019-04-20T17:28:28.901Z,24.37
2019-04-20T17:31:17.676Z,24.18
2019-04-20T17:34:02.598Z,24.04
2019-04-20T17:36:30.768Z,23.89
2019-04-20T17:39:04.661Z,23.73
2019-04-20T17:41:48.779Z,23.58
2019-04-20T17:44:20.999Z,23.52
2019-04-20T17:46:50.452Z,23.42
2019-04-20T17:49:28.103Z,23.29
2019-04-20T17:52:05.185Z,23.15
2019-04-20T17:54:39.790Z,23.15
2019-04-20T17:57:13.073Z,23.00
2019-04-20T17:59:52.977Z,22.88
2019-04-20T18:02:58.592Z,22.82
2019-04-20T18:05:39.393Z,22.69
2019-04-20T18:08:16.508Z,22.53
2019-04-20T18:10:38.833Z,22.48
2019-04-20T18:13:09.478Z,22.23
2019-04-20T18:15:48.850Z,22.11
2019-04-20T18:18:35.336Z,22.02
2019-04-20T18:21:10.862Z,21.96
2019-04-20T18:23:46.276Z,21.90
2019-04-20T18:26:41.996Z,21.81
2019-04-20T18:29:30.829Z,21.66
2019-04-20T18:31:33.786Z,21.53
2019-04-20T18:34:14.558Z,21.49
2019-04-20T18:36:44.607Z,21.28
2019-04-20T18:39:17.664Z,21.31
2019-04-20T18:41:52.203Z,21.15
2019-04-20T18:44:27.996Z,21.04
2019-04-20T18:47:21.566Z,20.93
2019-04-20T18:49:43.139Z,20.87
2019-04-20T18:52:02.008Z,20.86
2019-04-20T18:54:39.065Z,20.70
2019-04-20T18:57:11.128Z,20.61
2019-04-20T18:59:42.872Z,20.59
2019-04-20T19:02:20.044Z,20.53
2019-04-20T19:04:46.016Z,20.47
2019-04-20T19:07:17.605Z,20.34
2019-04-20T19:10:00.358Z,20.29
2019-04-20T19:12:36.679Z,20.24
2019-04-20T19:15:30.588Z,20.19
2019-04-20T19:18:05.728Z,20.08
2019-04-20T19:20:30.725Z,20.02
2019-04-20T19:23:02.257Z,19.93
2019-04-20T19:25:37.472Z,19.85
2019-04-20T19:28:07.519Z,19.78
2019-04-20T19:30:49.809Z,19.67
2019-04-20T19:33:30.423Z,19.64
2019-04-20T19:35:57.368Z,19.65
2019-04-20T19:38:25.764Z,19.57
2019-04-20T19:41:01.749Z,19.46
2019-04-20T19:43:31.553Z,19.43
2019-04-20T19:46:37.907Z,19.28
2019-04-20T19:48:40.507Z,19.23
2019-04-20T19:51:29.539Z,19.20
2019-04-20T19:54:01.015Z,19.23
2019-04-20T19:56:31.003Z,19.22
2019-04-20T19:59:01.140Z,19.16
2019-04-20T20:01:17.738Z,19.09
2019-04-20T20:03:56.300Z,18.99
2019-04-20T20:06:29.388Z,18.97
2019-04-20T20:09:01.869Z,18.88
2019-04-20T20:11:34.084Z,18.84
2019-04-20T20:14:06.131Z,18.72
2019-04-20T20:16:56.228Z,18.72
2019-04-20T20:19:21.042Z,18.75
2019-04-20T20:21:59.062Z,18.62
2019-04-20T20:24:17.396Z,18.55
2019-04-20T20:26:53.372Z,18.50
2019-04-20T20:29:32.716Z,18.39
2019-04-20T20:32:08.505Z,18.39
2019-04-20T20:34:34.522Z,18.28
2019-04-20T20:37:08.507Z,18.27
2019-04-20T20:39:36.649Z,18.12
2019-04-20T20:42:21.953Z,18.16
2019-04-20T20:44:48.634Z,18.13
2019-04-20T20:47:40.016Z,18.04
2019-04-20T20:50:08.287Z,17.96
2019-04-20T20:52:39.373Z,17.91
2019-04-20T20:54:59.107Z,17.87
2019-04-20T20:57:37.185Z,17.88
2019-04-20T21:00:03.717Z,17.78
2019-04-20T21:02:42.100Z,17.72
2019-04-20T21:05:04.328Z,17.65
2019-04-20T21:07:36.519Z,17.60
2019-04-20T21:10:10.276Z,17.60
2019-04-20T21:12:46.504Z,17.50
2019-04-20T21:15:22.157Z,17.44
2019-04-20T21:18:11.103Z,17.36
2019-04-20T21:20:44.432Z,17.30
2019-04-20T21:23:07.163Z,17.31
2019-04-20T21:25:41.717Z,17.19
2019-04-20T21:28:06.946Z,17.18
2019-04-20T21:30:43.234Z,17.11
2019-04-20T21:33:13.061Z,17.00
2019-04-20T21:35:48.571Z,16.96
2019-04-20T21:38:18.956Z,16.89
2019-04-20T21:41:00.664Z,16.92
2019-04-20T21:43:29.922Z,16.86
2019-04-20T21:46:02.851Z,16.81
2019-04-20T21:48:44.106Z,16.80
2019-04-20T21:51:19.041Z,16.69
2019-04-20T21:53:37.109Z,16.68
2019-04-20T21:56:10.188Z,16.58
2019-04-20T21:58:48.303Z,16.55
2019-04-20T22:01:25.215Z,16.57
2019-04-20T22:03:50.267Z,16.43
2019-04-20T22:06:22.436Z,16.36
2019-04-20T22:08:57.802Z,16.30
2019-04-20T22:11:27.831Z,16.30
2019-04-20T22:14:03.060Z,16.16
2019-04-20T22:16:38.894Z,16.12
2019-04-20T22:19:22.343Z,16.06
2019-04-20T22:21:50.350Z,16.04
2019-04-20T22:24:29.797Z,15.93
2019-04-20T22:26:54.952Z,15.89
2019-04-20T22:29:18.354Z,15.79
2019-04-20T22:31:56.721Z,15.71
2019-04-20T22:34:25.959Z,15.66
2019-04-20T22:36:56.075Z,15.65
2019-04-20T22:39:39.096Z,15.56
2019-04-20T22:42:08.935Z,15.57
2019-04-20T22:44:37.009Z,15.54
2019-04-20T22:47:13.907Z,15.51
2019-04-20T22:49:51.588Z,15.47
2019-04-20T22:52:30.389Z,15.46
2019-04-20T22:55:12.536Z,15.37
2019-04-20T22:57:36.291Z,15.30
2019-04-20T23:00:02.669Z,15.31
2019-04-20T23:02:28.340Z,15.21
2019-04-20T23:05:00.698Z,15.23
2019-04-20T23:07:32.693Z,15.18
2019-04-20T23:10:05.427Z,15.10
2019-04-20T23:12:40.032Z,15.01
2019-04-20T23:15:12.064Z,14.99
2019-04-20T23:17:46.827Z,15.05
2019-04-20T23:20:24.618Z,14.93
2019-04-20T23:22:51.334Z,14.89
2019-04-20T23:25:23.010Z,14.78
2019-04-20T23:28:00.552Z,14.77
2019-04-20T23:30:31.422Z,14.75
2019-04-20T23:33:00.457Z,14.65
2019-04-20T23:35:33.365Z,14.66
2019-04-20T23:38:11.229Z,14.68
2019-04-20T23:40:38.014Z,14.67
2019-04-20T23:43:23.403Z,14.56
2019-04-20T23:46:29.633Z,14.56
2019-04-20T23:49:24.106Z,14.50
2019-04-20T23:52:11.880Z,14.45
2019-04-20T23:54:27.385Z,14.40
2019-04-20T23:56:55.674Z,14.32
2019-04-20T23:59:34.366Z,14.30
